Time;durP1;ratioP1;P1;durP2;ratioP2;P2;SDS_P1;SDS_P2;PMS_P1;PMS_P2;Temp;Humidity;BMP_temperature;BMP_pressure;BME280_temperature;BME280_humidity;BME280_pressure;Samples;Min_cycle;Max_cycle;Signal;HPM_P1;HPM_P2
2023/01/15 00:02:27;;;;;;;;;;;;;;;5.88;71.92;100815.09;5406842;32;34952;-78
2023/01/15 00:05:29;;;;;;;;;;;;;;;6.37;70.54;100824.00;5388749;32;33346;-79
2023/01/15 00:08:30;;;;;;;;;;;;;;;5.80;73.57;100826.50;5416864;32;32970;-73
2023/01/15 00:11:32;;;;;;;;;;;;;;;6.32;71.01;100828.44;5384555;32;33650;-71
2023/01/15 00:14:34;;;;;;;;;;;;;;;5.41;75.88;100831.31;5416989;32;33626;-81
2023/01/15 00:17:36;;;;;;;;;;;;;;;5.34;74.31;100814.84;5398971;32;33690;-79
2023/01/15 00:20:38;;;;;;;;;;;;;;;5.30;75.37;100826.19;5393360;32;34545;-81
2023/01/15 00:30:22;;;;;;;;;;;;;;;5.31;75.25;100811.41;5407834;32;45445;-72
2023/01/15 00:33:24;;;;;;;;;;;;;;;6.02;72.79;100814.06;5388581;32;33636;-77
2023/01/15 00:36:26;;;;;;;;;;;;;;;5.43;75.88;100811.28;5402073;32;33652;-81
2023/01/15 00:39:28;;;;;;;;;;;;;;;5.42;75.47;100804.34;5418989;32;34349;-78
2023/01/15 00:42:30;;;;;;;;;;;;;;;5.50;74.51;100812.09;5395565;32;34669;-72
2023/01/15 00:45:32;;;;;;;;;;;;;;;6.02;71.85;100793.19;5419312;32;34183;-71
2023/01/15 00:48:34;;;;;;;;;;;;;;;6.17;70.64;100798.19;5399686;32;33673;-80
2023/01/15 00:51:36;;;;;;;;;;;;;;;5.10;75.17;100791.66;5390365;32;33119;-80
2023/01/15 00:54:38;;;;;;;;;;;;;;;5.42;74.52;100799.13;5404674;32;34583;-72
2023/01/15 00:57:40;;;;;;;;;;;;;;;6.24;70.83;100791.97;5401433;32;33866;-82
2023/01/15 01:00:42;;;;;;;;;;;;;;;6.26;70.11;100798.06;5415012;32;34669;-72
2023/01/15 01:03:47;;;;;;;;;;;;;;;6.12;70.33;100800.03;5400520;32;34411;-72
2023/01/15 01:06:49;;;;;;;;;;;;;;;5.78;72.87;100799.56;5413252;32;44608;-82
2023/01/15 01:09:51;;;;;;;;;;;;;;;5.24;73.17;100792.38;5383138;32;33490;-73
2023/01/15 01:12:54;;;;;;;;;;;;;;;5.71;73.03;100783.97;5396822;32;34421;-81
2023/01/15 01:15:56;;;;;;;;;;;;;;;5.69;71.93;100777.94;5350747;32;855612;-75
2023/01/15 01:18:59;;;;;;;;;;;;;;;5.43;74.50;100782.63;5386709;32;33349;-74
2023/01/15 01:22:01;;;;;;;;;;;;;;;4.43;78.60;100787.91;5400956;32;34016;-73
2023/01/15 01:25:03;;;;;;;;;;;;;;;5.32;73.21;100790.53;5408395;32;33112;-81
2023/01/15 01:28:05;;;;;;;;;;;;;;;4.63;77.34;100798.16;5414294;32;34235;-81
2023/01/15 01:31:07;;;;;;;;;;;;;;;4.95;75.35;100794.41;5392587;32;36111;-80
2023/01/15 01:34:09;;;;;;;;;;;;;;;5.14;76.52;100782.91;5407328;32;34393;-71
2023/01/15 01:37:11;;;;;;;;;;;;;;;6.01;70.36;100768.00;5389322;32;35331;-72
2023/01/15 01:40:13;;;;;;;;;;;;;;;5.22;72.76;100778.50;5414285;32;34247;-80
2023/01/15 01:43:18;;;;;;;;;;;;;;;4.82;73.16;100770.22;5419098;32;33692;-79
2023/01/15 01:46:20;;;;;;;;;;;;;;;5.50;71.67;100778.19;5394167;32;44750;-80
2023/01/15 01:49:22;;;;;;;;;;;;;;;5.51;71.31;100762.53;5411449;32;33804;-71
2023/01/15 01:52:26;;;;;;;;;;;;;;;4.44;78.20;100773.16;5366688;32;34689;-72
2023/01/15 01:55:28;;;;;;;;;;;;;;;5.34;74.81;100762.72;5413463;32;34528;-79
2023/01/15 01:58:30;;;;;;;;;;;;;;;5.77;71.54;100750.88;5405142;32;33932;-74
2023/01/15 02:01:32;;;;;;;;;;;;;;;5.39;73.97;100744.41;5399697;32;33520;-72
2023/01/15 02:04:34;;;;;;;;;;;;;;;5.62;70.73;100733.72;5418943;32;34302;-82
2023/01/15 02:07:36;;;;;;;;;;;;;;;4.65;73.65;100733.06;5404534;32;34016;-81
2023/01/15 02:10:39;;;;;;;;;;;;;;;4.49;74.91;100735.81;5406531;32;34640;-72
2023/01/15 02:13:44;;;;;;;;;;;;;;;4.50;76.11;100729.72;5401650;32;34883;-72
2023/01/15 02:17:03;;;;;;;;;;;;;;;3.78;79.79;100740.66;5400157;32;42853;-80
2023/01/15 02:20:21;;;;;;;;;;;;;;;4.75;75.29;100719.94;5418987;32;33709;-72
2023/01/15 02:23:29;;;;;;;;;;;;;;;3.78;79.45;100713.78;5403171;32;45732;-74
2023/01/15 02:26:54;;;;;;;;;;;;;;;4.60;77.70;100713.16;5408214;32;34578;-80
2023/01/15 02:30:05;;;;;;;;;;;;;;;4.93;75.70;100708.47;5413353;32;44841;-73
2023/01/15 02:33:10;;;;;;;;;;;;;;;5.55;72.27;100721.63;5392301;32;34195;-72
2023/01/15 02:36:12;;;;;;;;;;;;;;;4.79;75.79;100711.22;5408331;32;33555;-71
2023/01/15 02:39:14;;;;;;;;;;;;;;;5.44;72.32;100708.72;5402766;32;33251;-71
2023/01/15 02:42:16;;;;;;;;;;;;;;;5.36;71.64;100706.22;5403909;32;33642;-73
2023/01/15 02:45:25;;;;;;;;;;;;;;;4.10;76.75;100697.97;5400536;32;43666;-72
2023/01/15 02:48:28;;;;;;;;;;;;;;;4.11;77.39;100696.22;5404505;32;34823;-79
2023/01/15 02:51:32;;;;;;;;;;;;;;;4.43;77.43;100685.53;5377165;32;33861;-71
2023/01/15 02:54:36;;;;;;;;;;;;;;;5.10;72.72;100682.25;5408432;32;33042;-80
2023/01/15 02:57:38;;;;;;;;;;;;;;;4.97;72.20;100675.44;5403968;32;33113;-72
2023/01/15 03:00:42;;;;;;;;;;;;;;;4.84;73.11;100685.16;5397452;32;33771;-71
2023/01/15 03:04:06;;;;;;;;;;;;;;;4.57;73.42;100686.25;5417444;32;33954;-72
2023/01/15 03:07:11;;;;;;;;;;;;;;;4.30;75.60;100696.06;5396965;32;33691;-73
2023/01/15 03:10:13;;;;;;;;;;;;;;;3.21;79.70;100677.69;5408656;32;33906;-73
2023/01/15 03:13:38;;;;;;;;;;;;;;;3.57;79.59;100685.31;5401013;32;34010;-81
2023/01/15 03:16:51;;;;;;;;;;;;;;;4.57;76.97;100666.34;5397282;32;34344;-74
2023/01/15 03:19:55;;;;;;;;;;;;;;;4.82;73.40;100669.50;5407802;32;44849;-81
2023/01/15 03:23:02;;;;;;;;;;;;;;;3.62;78.12;100694.84;5403513;32;34624;-81
2023/01/15 03:26:04;;;;;;;;;;;;;;;3.71;78.76;100680.91;5386844;32;33510;-81
2023/01/15 03:29:06;;;;;;;;;;;;;;;4.64;75.86;100669.72;5397659;32;33784;-71
2023/01/15 03:32:08;;;;;;;;;;;;;;;4.65;74.75;100657.56;5396443;32;32856;-80
2023/01/15 03:35:29;;;;;;;;;;;;;;;4.66;74.71;100661.91;5416746;32;33726;-81
2023/01/15 03:38:32;;;;;;;;;;;;;;;4.24;76.53;100656.22;5411175;32;34333;-72
2023/01/15 03:41:39;;;;;;;;;;;;;;;4.88;74.98;100660.78;5421281;32;34427;-73
2023/01/15 03:44:57;;;;;;;;;;;;;;;4.46;76.33;100646.50;5417353;32;34219;-83
2023/01/15 03:48:04;;;;;;;;;;;;;;;3.46;79.13;100664.59;5393446;32;33934;-72
2023/01/15 03:51:15;;;;;;;;;;;;;;;4.66;75.83;100639.31;5395160;32;33815;-80
2023/01/15 03:54:22;;;;;;;;;;;;;;;4.43;74.67;100646.50;5405889;32;44659;-79
2023/01/15 03:57:24;;;;;;;;;;;;;;;4.60;75.62;100650.66;5420686;32;34294;-71
2023/01/15 04:00:27;;;;;;;;;;;;;;;5.17;72.24;100647.41;5416330;32;34605;-72
2023/01/15 04:03:29;;;;;;;;;;;;;;;5.32;71.48;100652.41;5398110;32;33672;-79
2023/01/15 04:06:33;;;;;;;;;;;;;;;4.54;74.92;100655.06;5405462;32;34812;-83
2023/01/15 04:09:38;;;;;;;;;;;;;;;4.32;75.72;100659.62;5385169;32;33094;-72
2023/01/15 04:12:40;;;;;;;;;;;;;;;4.33;77.23;100661.34;5408619;32;34447;-71
2023/01/15 04:15:41;;;;;;;;;;;;;;;3.87;77.27;100664.34;5406243;32;34425;-80
2023/01/15 04:18:44;;;;;;;;;;;;;;;5.28;73.35;100653.34;5415973;32;33903;-72
2023/01/15 04:21:45;;;;;;;;;;;;;;;4.78;73.98;100644.41;5410309;32;34082;-71
2023/01/15 04:24:47;;;;;;;;;;;;;;;5.25;72.57;100639.47;5409154;32;44199;-72
2023/01/15 04:27:52;;;;;;;;;;;;;;;4.77;75.45;100650.50;5417854;32;34021;-73
2023/01/15 04:30:55;;;;;;;;;;;;;;;4.91;72.62;100632.09;5409316;32;35071;-71
2023/01/15 04:33:58;;;;;;;;;;;;;;;5.61;70.23;100632.91;5421192;32;32999;-79
2023/01/15 04:37:00;;;;;;;;;;;;;;;5.61;69.90;100622.47;5402864;32;33093;-82
2023/01/15 04:40:02;;;;;;;;;;;;;;;5.54;69.68;100620.81;5422055;32;34032;-81
2023/01/15 04:46:24;;;;;;;;;;;;;;;5.11;72.19;100627.50;5394576;32;44712;-81
2023/01/15 04:49:26;;;;;;;;;;;;;;;5.05;71.66;100617.16;5408548;32;33282;-71
2023/01/15 04:52:28;;;;;;;;;;;;;;;5.09;72.45;100613.63;5377093;32;32954;-79
2023/01/15 04:55:30;;;;;;;;;;;;;;;5.21;72.40;100622.16;5410694;32;33172;-72
2023/01/15 04:58:32;;;;;;;;;;;;;;;5.18;70.40;100636.09;5392182;32;34326;-72
2023/01/15 05:01:34;;;;;;;;;;;;;;;4.69;73.81;100626.25;5410460;32;33918;-81
2023/01/15 05:04:37;;;;;;;;;;;;;;;5.21;72.77;100637.78;5393504;32;34519;-72
2023/01/15 05:07:39;;;;;;;;;;;;;;;4.71;73.35;100631.47;5393029;32;33608;-81
2023/01/15 05:10:40;;;;;;;;;;;;;;;5.32;70.57;100631.56;5415598;32;34275;-81
2023/01/15 05:13:42;;;;;;;;;;;;;;;4.82;72.41;100632.19;5378261;32;33479;-80
2023/01/15 05:16:44;;;;;;;;;;;;;;;5.11;71.61;100611.88;5409710;32;34390;-80
2023/01/15 05:19:46;;;;;;;;;;;;;;;4.92;72.11;100610.37;5384068;32;45343;-73
2023/01/15 05:22:48;;;;;;;;;;;;;;;5.34;70.60;100598.50;5403724;32;31918;-81
2023/01/15 05:25:50;;;;;;;;;;;;;;;5.38;70.28;100597.59;5427023;32;33590;-72
2023/01/15 05:28:53;;;;;;;;;;;;;;;5.34;71.10;100603.72;5395636;32;33278;-81
2023/01/15 05:31:55;;;;;;;;;;;;;;;5.04;71.58;100593.75;5405063;32;33447;-72
2023/01/15 05:34:57;;;;;;;;;;;;;;;5.14;72.50;100588.34;5414710;32;33211;-72
2023/01/15 05:37:59;;;;;;;;;;;;;;;5.30;70.58;100581.22;5416915;32;33909;-80
2023/01/15 05:44:29;;;;;;;;;;;;;;;5.03;72.21;100576.37;5410223;32;33411;-80
2023/01/15 05:47:31;;;;;;;;;;;;;;;5.00;72.70;100568.59;5405258;32;34417;-72
2023/01/15 05:50:33;;;;;;;;;;;;;;;5.00;72.83;100566.00;5403214;32;34642;-72
2023/01/15 05:53:35;;;;;;;;;;;;;;;4.60;74.38;100566.50;5410598;32;33469;-73
2023/01/15 05:56:37;;;;;;;;;;;;;;;5.03;74.21;100571.19;5397090;32;34308;-72
2023/01/15 05:59:39;;;;;;;;;;;;;;;4.69;75.18;100560.31;5405031;32;34688;-72
2023/01/15 06:02:41;;;;;;;;;;;;;;;5.56;71.38;100543.47;5400661;32;33414;-72
2023/01/15 06:05:43;;;;;;;;;;;;;;;5.66;70.36;100552.84;5385639;32;33240;-72
2023/01/15 06:08:45;;;;;;;;;;;;;;;5.58;70.50;100546.88;5409600;32;33691;-78
2023/01/15 06:11:46;;;;;;;;;;;;;;;5.36;72.37;100547.25;5405990;32;43061;-71
2023/01/15 06:14:48;;;;;;;;;;;;;;;5.47;71.45;100548.78;5408138;32;34283;-79
2023/01/15 06:17:50;;;;;;;;;;;;;;;5.48;71.92;100542.72;5401525;32;34463;-81
2023/01/15 06:20:52;;;;;;;;;;;;;;;5.14;72.75;100551.03;5418183;32;34099;-72
2023/01/15 06:23:55;;;;;;;;;;;;;;;4.93;75.56;100549.59;5409577;32;33205;-81
2023/01/15 06:26:57;;;;;;;;;;;;;;;5.26;73.89;100542.16;5403655;32;34758;-73
2023/01/15 06:29:59;;;;;;;;;;;;;;;5.22;73.14;100550.94;5428172;32;34716;-80
2023/01/15 06:33:01;;;;;;;;;;;;;;;4.92;75.48;100552.22;5404555;32;35421;-82
2023/01/15 06:36:06;;;;;;;;;;;;;;;4.95;75.91;100545.22;5398605;32;33771;-80
2023/01/15 06:39:08;;;;;;;;;;;;;;;5.58;72.31;100544.28;5383154;32;35411;-80
2023/01/15 06:48:53;;;;;;;;;;;;;;;6.07;69.97;100523.47;5400992;32;44797;-81
2023/01/15 06:51:55;;;;;;;;;;;;;;;6.02;70.94;100532.28;5404992;32;33834;-72
2023/01/15 06:54:57;;;;;;;;;;;;;;;5.95;71.45;100523.69;5394412;32;31160;-78
2023/01/15 06:57:58;;;;;;;;;;;;;;;5.51;73.08;100517.44;5395584;32;33209;-72
2023/01/15 07:01:05;;;;;;;;;;;;;;;5.66;72.78;100522.41;5406121;32;32874;-80
2023/01/15 07:04:07;;;;;;;;;;;;;;;6.07;71.13;100512.19;5405743;32;33790;-72
2023/01/15 07:07:09;;;;;;;;;;;;;;;5.84;71.14;100526.44;5406783;32;32979;-80
2023/01/15 07:10:11;;;;;;;;;;;;;;;5.85;72.32;100529.91;5407232;32;34383;-82
2023/01/15 07:13:13;;;;;;;;;;;;;;;5.75;73.53;100530.97;5413659;32;33706;-71
2023/01/15 07:16:27;;;;;;;;;;;;;;;5.47;74.81;100530.56;5386245;32;34823;-82
2023/01/15 07:19:29;;;;;;;;;;;;;;;6.30;71.03;100530.84;5398167;32;33098;-81
2023/01/15 07:22:31;;;;;;;;;;;;;;;6.11;71.48;100525.13;5414050;32;33014;-79
2023/01/15 07:25:34;;;;;;;;;;;;;;;5.64;73.51;100518.97;5414047;32;33002;-82
2023/01/15 07:28:36;;;;;;;;;;;;;;;6.11;71.99;100521.66;5403428;32;33086;-81
2023/01/15 07:31:37;;;;;;;;;;;;;;;6.46;70.25;100519.22;5398140;32;33548;-80
2023/01/15 07:34:39;;;;;;;;;;;;;;;6.00;71.84;100521.00;5408060;32;33593;-72
2023/01/15 07:37:42;;;;;;;;;;;;;;;5.69;75.08;100521.50;5403896;32;33307;-81
2023/01/15 07:49:44;;;;;;;;;;;;;;;6.14;72.53;100519.00;5394409;32;33783;-72
2023/01/15 07:50:49;;;;;;;;;;;;;;;5.14;76.58;100501.53;5391278;32;45160;-81
2023/01/15 07:53:51;;;;;;;;;;;;;;;6.01;74.22;100509.69;5385537;32;34290;-79
2023/01/15 07:56:53;;;;;;;;;;;;;;;5.82;75.40;100511.72;5395105;32;32883;-79
2023/01/15 07:59:55;;;;;;;;;;;;;;;5.92;74.95;100505.47;5413474;32;33807;-72
2023/01/15 08:02:57;;;;;;;;;;;;;;;6.72;71.77;100489.09;5386779;32;34826;-71
2023/01/15 08:05:59;;;;;;;;;;;;;;;6.43;73.00;100498.37;5410396;32;33182;-80
2023/01/15 08:09:01;;;;;;;;;;;;;;;7.16;69.33;100488.09;5386227;32;33473;-80
2023/01/15 08:15:24;;;;;;;;;;;;;;;7.29;68.63;100483.44;5405776;32;45669;-73
2023/01/15 08:18:26;;;;;;;;;;;;;;;6.95;69.45;100486.81;5398720;32;33683;-79
2023/01/15 08:21:28;;;;;;;;;;;;;;;6.59;72.00;100479.81;5423963;32;34540;-78
2023/01/15 08:24:30;;;;;;;;;;;;;;;6.42;73.34;100483.63;5388657;32;35617;-72
2023/01/15 08:27:32;;;;;;;;;;;;;;;6.71;71.86;100480.41;5413514;32;34486;-73
2023/01/15 08:30:34;;;;;;;;;;;;;;;6.50;73.96;100488.69;5399631;32;34514;-72
2023/01/15 08:33:36;;;;;;;;;;;;;;;6.50;73.62;100480.84;5396841;32;33744;-73
2023/01/15 08:36:38;;;;;;;;;;;;;;;6.98;71.43;100481.53;5422535;32;31900;-72
2023/01/15 08:39:40;;;;;;;;;;;;;;;6.98;70.32;100485.91;5410212;32;33029;-74
2023/01/15 08:42:42;;;;;;;;;;;;;;;6.05;74.95;100500.88;5425760;32;33452;-81
2023/01/15 08:45:44;;;;;;;;;;;;;;;6.95;72.30;100484.19;5413398;32;33350;-82
2023/01/15 08:48:47;;;;;;;;;;;;;;;6.71;71.39;100475.19;5414410;32;34177;-73
2023/01/15 08:51:50;;;;;;;;;;;;;;;6.26;73.83;100484.84;5358758;32;47220;-81
2023/01/15 08:54:52;;;;;;;;;;;;;;;6.19;75.22;100486.72;5410296;32;34265;-80
2023/01/15 08:57:54;;;;;;;;;;;;;;;6.83;73.00;100479.28;5407797;32;33475;-72
2023/01/15 09:01:02;;;;;;;;;;;;;;;7.03;72.11;100464.00;5411918;32;33310;-78
2023/01/15 09:04:05;;;;;;;;;;;;;;;7.38;69.74;100470.13;5414596;32;33806;-81
2023/01/15 09:07:07;;;;;;;;;;;;;;;7.39;69.95;100458.78;5396568;32;32919;-74
2023/01/15 09:10:09;;;;;;;;;;;;;;;6.78;71.62;100466.31;5409127;32;33597;-73
2023/01/15 09:13:11;;;;;;;;;;;;;;;7.59;69.26;100456.50;5381645;32;34981;-73
2023/01/15 09:16:16;;;;;;;;;;;;;;;7.78;67.98;100448.19;5384793;32;33171;-81
2023/01/15 09:19:18;;;;;;;;;;;;;;;7.51;66.97;100453.25;5411983;32;44741;-73
2023/01/15 09:22:20;;;;;;;;;;;;;;;6.99;71.40;100451.03;5374689;32;35245;-72
2023/01/15 09:25:23;;;;;;;;;;;;;;;7.19;69.83;100442.72;5416544;32;34401;-72
2023/01/15 09:28:25;;;;;;;;;;;;;;;7.84;68.20;100440.16;5402242;32;33758;-81
2023/01/15 09:31:27;;;;;;;;;;;;;;;7.82;67.02;100423.66;5418400;32;34499;-80
2023/01/15 09:34:29;;;;;;;;;;;;;;;7.76;67.70;100427.31;5389420;32;34220;-72
2023/01/15 09:37:31;;;;;;;;;;;;;;;7.00;69.10;100422.25;5395569;32;33123;-80
2023/01/15 09:40:50;;;;;;;;;;;;;;;6.75;71.66;100427.19;5412035;32;34293;-80
2023/01/15 09:43:54;;;;;;;;;;;;;;;7.00;69.40;100403.97;5395522;32;45309;-80
2023/01/15 09:47:08;;;;;;;;;;;;;;;6.69;72.24;100400.34;5409439;32;33904;-72
2023/01/15 09:50:10;;;;;;;;;;;;;;;7.62;68.43;100394.56;5390054;32;34269;-80
2023/01/15 09:53:22;;;;;;;;;;;;;;;8.02;66.83;100395.19;5383642;32;31576;-73
2023/01/15 09:56:28;;;;;;;;;;;;;;;7.32;68.88;100378.78;5397896;32;43647;-73
2023/01/15 09:59:37;;;;;;;;;;;;;;;7.71;67.92;100382.09;5379048;32;34488;-73
2023/01/15 10:02:40;;;;;;;;;;;;;;;7.20;68.98;100372.09;5416781;32;34609;-81
2023/01/15 10:05:43;;;;;;;;;;;;;;;7.94;66.52;100365.75;5383193;32;35368;-81
2023/01/15 10:08:46;;;;;;;;;;;;;;;7.65;66.44;100363.94;5385435;32;34501;-74
2023/01/15 10:15:34;;;;;;;;;;;;;;;7.68;67.63;100352.56;5405522;32;34172;-73
2023/01/15 10:18:39;;;;;;;;;;;;;;;7.99;67.26;100329.84;5393456;32;32505;-83
2023/01/15 10:21:49;;;;;;;;;;;;;;;8.03;65.68;100317.50;5394826;32;32921;-79
2023/01/15 10:24:55;;;;;;;;;;;;;;;8.12;66.67;100320.72;5408968;32;44603;-80
2023/01/15 10:27:58;;;;;;;;;;;;;;;8.63;65.25;100322.66;5413714;32;34713;-79
2023/01/15 10:31:08;;;;;;;;;;;;;;;8.27;65.39;100301.06;5402326;32;33177;-72
2023/01/15 10:34:28;;;;;;;;;;;;;;;7.95;65.63;100293.34;5407795;32;33200;-72
2023/01/15 10:37:30;;;;;;;;;;;;;;;8.55;64.62;100287.13;5390636;32;34192;-81
2023/01/15 10:40:35;;;;;;;;;;;;;;;8.63;64.66;100295.56;5411445;32;32898;-73
2023/01/15 10:43:56;;;;;;;;;;;;;;;8.70;63.38;100291.87;5416125;32;34441;-80
2023/01/15 10:46:58;;;;;;;;;;;;;;;9.42;61.25;100279.75;5395270;32;34362;-73
2023/01/15 10:50:00;;;;;;;;;;;;;;;9.74;60.44;100278.59;5407595;32;34122;-81
2023/01/15 10:53:08;;;;;;;;;;;;;;;9.07;61.45;100259.16;5381731;32;33564;-73
2023/01/15 10:56:29;;;;;;;;;;;;;;;10.09;58.68;100254.50;5397682;32;34363;-81
2023/01/15 10:59:36;;;;;;;;;;;;;;;10.06;58.78;100246.78;5419074;32;34240;-72
2023/01/15 11:02:44;;;;;;;;;;;;;;;9.83;58.82;100251.13;5396086;32;33089;-79
2023/01/15 11:05:46;;;;;;;;;;;;;;;9.89;58.74;100229.03;5399384;32;43357;-72
2023/01/15 11:08:56;;;;;;;;;;;;;;;9.91;58.96;100221.94;5398969;32;33084;-79
2023/01/15 11:22:16;;;;;;;;;;;;;;;9.09;59.92;100220.66;5409669;32;33963;-73
2023/01/15 11:25:28;;;;;;;;;;;;;;;9.21;59.74;100197.47;5403063;32;45485;-79
2023/01/15 11:28:30;;;;;;;;;;;;;;;8.78;61.11;100206.00;5413478;32;32089;-80
2023/01/15 11:31:36;;;;;;;;;;;;;;;8.57;62.85;100197.13;5414537;32;34053;-82
2023/01/15 11:34:39;;;;;;;;;;;;;;;9.17;60.99;100182.75;5408936;32;34189;-73
2023/01/15 11:37:41;;;;;;;;;;;;;;;8.99;61.19;100178.16;5413556;32;33224;-82
2023/01/15 11:40:58;;;;;;;;;;;;;;;9.56;59.71;100178.69;5395485;32;33988;-82
2023/01/15 11:51:01;;;;;;;;;;;;;;;8.93;60.79;100163.50;5395366;32;33447;-74
2023/01/15 11:54:04;;;;;;;;;;;;;;;9.31;60.30;100131.56;5414591;32;33392;-72
2023/01/15 11:57:06;;;;;;;;;;;;;;;10.51;56.04;100120.59;5408282;32;33923;-72
2023/01/15 12:00:14;;;;;;;;;;;;;;;10.46;56.19;100115.53;5398713;32;35193;-73
2023/01/15 12:03:19;;;;;;;;;;;;;;;10.22;56.84;100111.28;5410820;32;34531;-80
2023/01/15 12:06:21;;;;;;;;;;;;;;;10.57;55.64;100096.69;5384372;32;44498;-72
2023/01/15 12:09:23;;;;;;;;;;;;;;;10.55;56.16;100095.88;5399544;32;36259;-83
2023/01/15 12:12:25;;;;;;;;;;;;;;;10.10;57.37;100077.66;5400317;32;34115;-82
2023/01/15 12:15:28;;;;;;;;;;;;;;;9.63;58.50;100097.06;5407507;32;34041;-78
2023/01/15 12:18:39;;;;;;;;;;;;;;;10.17;57.57;100093.09;5415825;32;34386;-81
2023/01/15 12:21:41;;;;;;;;;;;;;;;10.88;55.65;100097.94;5411780;32;34462;-80
2023/01/15 12:24:49;;;;;;;;;;;;;;;10.14;57.23;100095.84;5417887;32;33598;-74
2023/01/15 12:28:00;;;;;;;;;;;;;;;10.34;56.81;100096.81;5398723;32;44752;-72
2023/01/15 12:31:02;;;;;;;;;;;;;;;11.08;54.66;100092.66;5416461;32;33059;-72
2023/01/15 12:34:12;;;;;;;;;;;;;;;10.94;54.75;100081.88;5407965;32;33933;-82
2023/01/15 12:37:37;;;;;;;;;;;;;;;10.41;56.89;100074.63;5402151;32;33616;-80
2023/01/15 12:40:41;;;;;;;;;;;;;;;10.49;56.50;100078.59;5410201;32;33625;-74
2023/01/15 12:47:44;;;;;;;;;;;;;;;10.94;55.05;100079.25;5306862;32;33562;-81
2023/01/15 12:50:47;;;;;;;;;;;;;;;11.02;55.15;100079.78;5387403;32;35584;-80
2023/01/15 12:53:50;;;;;;;;;;;;;;;11.10;54.69;100073.25;5395874;32;33506;-81
2023/01/15 12:56:54;;;;;;;;;;;;;;;10.76;56.10;100073.94;5412500;32;33546;-73
2023/01/15 12:59:58;;;;;;;;;;;;;;;10.56;56.36;100066.94;5409850;32;33022;-73
2023/01/15 13:03:14;;;;;;;;;;;;;;;10.75;56.10;100060.81;5427794;32;34163;-81
2023/01/15 13:06:16;;;;;;;;;;;;;;;10.68;57.10;100055.00;5383413;32;34024;-72
2023/01/15 13:09:30;;;;;;;;;;;;;;;11.69;53.06;100046.78;5398174;32;45388;-79
2023/01/15 13:12:32;;;;;;;;;;;;;;;11.59;53.67;100054.25;5414569;32;33141;-74
2023/01/15 13:15:34;;;;;;;;;;;;;;;11.38;54.37;100043.00;5402647;32;33804;-73
2023/01/15 13:18:36;;;;;;;;;;;;;;;11.20;53.72;100055.22;5418717;32;33646;-72
2023/01/15 13:21:38;;;;;;;;;;;;;;;11.11;55.16;100039.91;5397648;32;34084;-81
2023/01/15 13:24:40;;;;;;;;;;;;;;;11.42;54.28;100038.44;5415890;32;34154;-72
2023/01/15 13:28:01;;;;;;;;;;;;;;;11.35;54.37;100036.13;5419613;32;33874;-79
2023/01/15 13:31:09;;;;;;;;;;;;;;;11.60;53.60;100027.88;5389035;32;34309;-73
2023/01/15 13:34:20;;;;;;;;;;;;;;;11.02;55.00;100021.94;5411360;32;33744;-74
2023/01/15 13:37:25;;;;;;;;;;;;;;;11.71;52.97;100022.06;5397095;32;44469;-81
2023/01/15 13:40:34;;;;;;;;;;;;;;;11.25;54.36;100021.69;5419416;32;34957;-82
2023/01/15 13:43:39;;;;;;;;;;;;;;;11.62;53.30;100014.66;5414714;32;34069;-72
2023/01/15 13:46:42;;;;;;;;;;;;;;;11.29;54.46;100017.13;5384631;32;33301;-80
2023/01/15 13:49:49;;;;;;;;;;;;;;;11.19;54.49;100010.59;5411437;32;33637;-73
2023/01/15 13:52:57;;;;;;;;;;;;;;;11.39;54.29;100013.13;5380715;32;44529;-73
2023/01/15 13:56:11;;;;;;;;;;;;;;;11.35;54.21;100007.16;5403109;32;33755;-81
2023/01/15 13:59:32;;;;;;;;;;;;;;;11.60;53.54;100006.84;5412322;32;34135;-81
2023/01/15 14:02:36;;;;;;;;;;;;;;;11.78;52.72;99991.88;5399143;32;33712;-72
2023/01/15 14:05:38;;;;;;;;;;;;;;;11.85;52.52;99989.81;5401022;32;33012;-74
2023/01/15 14:08:43;;;;;;;;;;;;;;;12.10;51.43;99989.41;5404599;32;33028;-73
2023/01/15 14:11:45;;;;;;;;;;;;;;;11.73;52.27;99990.44;5411846;32;33905;-73
2023/01/15 14:14:47;;;;;;;;;;;;;;;11.66;52.05;99997.78;5407175;32;46912;-80
2023/01/15 14:18:22;;;;;;;;;;;;;;;10.54;54.79;99996.94;5402650;32;34240;-73
2023/01/15 14:21:26;;;;;;;;;;;;;;;11.28;53.32;99989.97;5390119;32;44558;-78
2023/01/15 14:24:47;;;;;;;;;;;;;;;11.41;52.46;99994.66;5406072;32;33173;-78
2023/01/15 14:28:13;;;;;;;;;;;;;;;10.77;54.06;99994.13;5399341;32;45017;-73
2023/01/15 14:31:27;;;;;;;;;;;;;;;11.24;52.20;99998.94;5399139;32;33543;-72
2023/01/15 14:34:30;;;;;;;;;;;;;;;10.42;53.98;99987.84;5388677;32;33481;-72
2023/01/15 14:37:33;;;;;;;;;;;;;;;10.93;53.26;99973.22;5411896;32;34662;-73
2023/01/15 14:40:35;;;;;;;;;;;;;;;10.20;54.89;99984.44;5391334;32;33182;-79
2023/01/15 14:43:40;;;;;;;;;;;;;;;11.08;53.03;99976.94;5407337;32;33951;-79
2023/01/15 14:46:42;;;;;;;;;;;;;;;10.07;56.04;99971.00;5398734;32;33045;-79
2023/01/15 14:49:48;;;;;;;;;;;;;;;10.75;54.67;99972.31;5411322;32;33015;-79
2023/01/15 14:52:51;;;;;;;;;;;;;;;10.20;55.26;99964.28;5400865;32;44334;-73
2023/01/15 14:56:22;;;;;;;;;;;;;;;10.94;54.04;99968.81;5410246;32;33341;-79
2023/01/15 14:59:44;;;;;;;;;;;;;;;11.28;52.96;99968.09;5397001;32;45051;-79
2023/01/15 15:02:46;;;;;;;;;;;;;;;11.07;53.02;99965.53;5405606;32;44946;-72
2023/01/15 15:05:48;;;;;;;;;;;;;;;11.28;52.78;99966.31;5399906;32;33729;-78
2023/01/15 15:08:50;;;;;;;;;;;;;;;11.20;52.99;99968.44;5420834;32;33963;-78
2023/01/15 15:15:20;;;;;;;;;;;;;;;11.11;53.47;99972.38;5398392;32;33226;-78
2023/01/15 15:18:25;;;;;;;;;;;;;;;10.83;54.18;99962.31;5406606;32;46650;-72
2023/01/15 15:21:29;;;;;;;;;;;;;;;11.13;53.40;99951.25;5402449;32;32965;-76
2023/01/15 15:24:32;;;;;;;;;;;;;;;11.61;51.63;99941.88;5402026;32;33918;-79
2023/01/15 15:27:34;;;;;;;;;;;;;;;11.63;51.50;99932.97;5394649;32;33691;-79
2023/01/15 15:30:39;;;;;;;;;;;;;;;11.34;52.17;99939.69;5426802;32;34894;-73
2023/01/15 15:33:41;;;;;;;;;;;;;;;11.25;52.48;99936.66;5385993;32;35923;-78
2023/01/15 15:36:44;;;;;;;;;;;;;;;10.96;53.27;99933.66;5417554;32;34188;-78
2023/01/15 15:39:55;;;;;;;;;;;;;;;10.81;54.35;99932.59;5414347;32;34283;-77
2023/01/15 15:49:48;;;;;;;;;;;;;;;11.29;53.49;99918.03;5412649;32;45666;-72
2023/01/15 15:52:51;;;;;;;;;;;;;;;11.06;54.37;99926.16;5368884;32;36025;-79
2023/01/15 15:55:52;;;;;;;;;;;;;;;11.27;54.10;99925.16;5398666;32;33413;-73
2023/01/15 15:58:57;;;;;;;;;;;;;;;11.35;53.44;99911.59;5399466;32;34275;-78
2023/01/15 16:02:00;;;;;;;;;;;;;;;11.28;54.02;99915.47;5404114;32;34771;-76
2023/01/15 16:05:03;;;;;;;;;;;;;;;11.25;53.52;99911.19;5405340;32;33419;-79
2023/01/15 16:08:15;;;;;;;;;;;;;;;10.37;56.58;99926.78;5400778;32;33520;-79
2023/01/15 16:11:16;;;;;;;;;;;;;;;10.43;56.06;99926.53;5400403;32;48259;-73
2023/01/15 16:14:19;;;;;;;;;;;;;;;11.17;53.86;99929.12;5411417;32;33775;-78
2023/01/15 16:17:21;;;;;;;;;;;;;;;10.58;55.43;99922.31;5407694;32;34342;-78
2023/01/15 16:20:23;;;;;;;;;;;;;;;10.75;55.06;99908.38;5399828;32;33856;-79
2023/01/15 16:23:28;;;;;;;;;;;;;;;10.50;55.55;99927.09;5404081;32;34173;-77
2023/01/15 16:26:30;;;;;;;;;;;;;;;10.61;55.57;99919.53;5393045;32;34350;-78
2023/01/15 16:29:33;;;;;;;;;;;;;;;10.84;54.96;99924.56;5424303;32;35520;-79
2023/01/15 16:32:41;;;;;;;;;;;;;;;10.74;55.07;99925.06;5381057;32;33274;-79
2023/01/15 16:35:43;;;;;;;;;;;;;;;10.65;55.35;99929.00;5402493;32;35454;-78
2023/01/15 16:38:46;;;;;;;;;;;;;;;10.42;56.53;99930.03;5411466;32;34615;-77
2023/01/15 16:41:48;;;;;;;;;;;;;;;10.55;55.83;99920.66;5402012;32;43738;-77
2023/01/15 16:44:51;;;;;;;;;;;;;;;10.47;55.69;99927.22;5411064;32;34285;-78
2023/01/15 16:48:17;;;;;;;;;;;;;;;10.53;56.31;99917.28;5403358;32;33673;-77
2023/01/15 16:51:22;;;;;;;;;;;;;;;10.76;55.25;99915.34;5402629;32;44678;-77
2023/01/15 16:54:30;;;;;;;;;;;;;;;10.84;55.48;99918.47;5413131;32;34664;-78
2023/01/15 16:57:34;;;;;;;;;;;;;;;10.09;57.56;99921.88;5402135;32;33447;-77
2023/01/15 17:00:36;;;;;;;;;;;;;;;11.26;54.16;99918.16;5410536;32;33660;-77
2023/01/15 17:03:38;;;;;;;;;;;;;;;11.24;54.12;99917.37;5400956;32;34595;-78
2023/01/15 17:06:40;;;;;;;;;;;;;;;11.22;54.35;99916.63;5400960;32;33161;-78